Terminal Aerodrome Forecast
Issued by NWS

Home | Current Version | Previous Version | Text Only | Print | Product List | Glossary On
Versions: 1 2 3 4 5 6 7 8 9 10 11 12 13 14 15 16 17 18 19
000
FTUS44 KLZK 210111 AAA
TAFADF
TAF AMD
KADF 210111Z 2101/2124 VRB04KT P6SM VCTS SCT050CB BKN250
     FM210300 VRB03KT P6SM FEW040 SCT250
     FM210800 00000KT 5SM BR FEW005 SCT250
      TEMPO 2110/2112 1SM BR SCT005
     FM211500 20007KT P6SM FEW050 SCT250=

USA.gov is the U.S. government's official web portal to all federal, state and local government web resources and services.